Fairchem Blade — HPXU — position and weather

sailwx.info

Track history (hours):
 
Tides and Currents Weather Stations Pressure Air Temp Water Temp Dewpoint Dewpoint Depression Visibility Wind Speed Wind Dir Waves Ship Positions

Fairchem Blade

Last reported at 2017-Nov-18 17:27 UTC. Time now 2017-Nov-19 01:15 UTC.
Position N 35°59' W 005°30'.

Length 147 m; draft 9.5 m.

Type: Ship (hazmat cat B). MMSI: 371085000.

Date/timePositionNaut miles runAvg speedWind from/ knotsBaromVisibWave heightAir tempDewpointWater temp
2017-Nov-18 17:27N 35°59' W 005°30'613.2
2017-Nov-18 16:59N 36°01' W 005°23'613.3
2017-Nov-18 16:30N 36°03' W 005°15'  
2017-Nov-15 17:24N 36°31' E 014°07'513.2
2017-Nov-15 17:00N 36°29' E 014°13'713.1
2017-Nov-15 16:30N 36°27' E 014°21'612.9
2017-Nov-15 16:00N 36°25' E 014°28'612.7
2017-Nov-15 15:30N 36°23' E 014°36'612.8
2017-Nov-15 15:00N 36°21' E 014°43'612.8
2017-Nov-15 14:30N 36°19' E 014°51'  
Track history (hours):
 
Tides and Currents Weather Stations Pressure Air Temp Water Temp Dewpoint Dewpoint Depression Visibility Wind Speed Wind Dir Waves Ship Positions

Fairchem Blade

Last reported at 2017-Nov-18 17:27 UTC. Time now 2017-Nov-19 01:15 UTC.
Position N 35°59' W 005°30'.

Length 147 m; draft 9.5 m.

Type: Ship (hazmat cat B). MMSI: 371085000.

Date/timePositionNaut miles runAvg speedWind from/ knotsBaromVisibWave heightAir tempDewpointWater temp
2017-Nov-18 17:27N 35°59' W 005°30'613.2
2017-Nov-18 16:59N 36°01' W 005°23'613.3
2017-Nov-18 16:30N 36°03' W 005°15'  
2017-Nov-15 17:24N 36°31' E 014°07'513.2
2017-Nov-15 17:00N 36°29' E 014°13'713.1
2017-Nov-15 16:30N 36°27' E 014°21'612.9
2017-Nov-15 16:00N 36°25' E 014°28'612.7
2017-Nov-15 15:30N 36°23' E 014°36'612.8
2017-Nov-15 15:00N 36°21' E 014°43'612.8
2017-Nov-15 14:30N 36°19' E 014°51'  

Dump ship's entire track history